createdAt,value
2022-09-25T00:03:43.265Z,88.47
2022-09-25T00:09:07.854Z,88.24
2022-09-25T00:14:31.701Z,92.62
2022-09-25T00:19:53.569Z,88.42
2022-09-25T00:25:16.623Z,87.78
2022-09-25T00:30:40.618Z,88.58
2022-09-25T00:36:04.519Z,89.41
2022-09-25T00:41:29.807Z,89.69
2022-09-25T00:46:51.711Z,89.15
2022-09-25T00:52:14.442Z,89.13
2022-09-25T00:57:40.707Z,89.17
2022-09-25T01:03:03.003Z,89.80
2022-09-25T01:08:27.276Z,89.86
2022-09-25T01:13:49.223Z,89.87
2022-09-25T01:19:11.021Z,89.81
2022-09-25T01:24:47.973Z,90.26
2022-09-25T01:30:14.411Z,90.62
2022-09-25T01:35:51.366Z,91.04
2022-09-25T01:41:33.902Z,91.65
2022-09-25T01:47:02.209Z,93.01
2022-09-25T01:52:30.374Z,93.83
2022-09-25T01:58:18.367Z,93.78
2022-09-25T02:03:46.986Z,94.98
2022-09-25T02:09:19.021Z,95.72
2022-09-25T02:14:47.862Z,95.63
2022-09-25T02:20:09.961Z,96.44
2022-09-25T02:25:40.957Z,96.36
2022-09-25T02:31:07.413Z,96.94
2022-09-25T02:36:29.681Z,97.61
2022-09-25T02:42:19.317Z,97.05
2022-09-25T02:48:07.600Z,97.17
2022-09-25T02:53:41.324Z,96.83
2022-09-25T02:59:09.208Z,97.66
2022-09-25T03:04:34.793Z,98.16
2022-09-25T03:09:57.823Z,97.83
2022-09-25T03:15:20.109Z,96.87
2022-09-25T03:20:41.924Z,97.34
2022-09-25T03:26:04.366Z,96.83
2022-09-25T03:31:26.386Z,97.15
2022-09-25T03:36:48.153Z,97.38
2022-09-25T03:42:09.903Z,97.55
2022-09-25T03:47:31.856Z,97.21
2022-09-25T03:52:53.628Z,97.80
2022-09-25T03:58:18.388Z,97.60
2022-09-25T04:03:40.662Z,97.24
2022-09-25T04:09:02.418Z,98.09
2022-09-25T04:14:24.205Z,97.10
2022-09-25T04:19:46.012Z,97.83
2022-09-25T04:25:08.176Z,97.32
2022-09-25T04:30:30.166Z,96.90
2022-09-25T04:35:51.937Z,96.43
2022-09-25T04:41:14.976Z,95.25
2022-09-25T04:46:36.858Z,94.28
2022-09-25T04:51:58.698Z,93.99
2022-09-25T04:57:45.667Z,87.64
2022-09-25T05:03:04.281Z,84.20
2022-09-25T05:08:27.194Z,83.38
2022-09-25T05:13:52.612Z,70.61
2022-09-25T05:19:14.953Z,59.66
2022-09-25T05:24:36.861Z,61.46
2022-09-25T05:29:58.610Z,67.40
2022-09-25T05:35:22.486Z,52.66
2022-09-25T05:40:44.280Z,44.93
2022-09-25T05:46:06.657Z,47.41
2022-09-25T05:51:28.627Z,52.57
2022-09-25T05:56:50.450Z,53.26
2022-09-25T06:02:12.266Z,52.51
2022-09-25T06:07:34.070Z,49.45
2022-09-25T06:13:00.699Z,44.01
2022-09-25T06:18:24.445Z,43.66
2022-09-25T06:23:46.215Z,43.92
2022-09-25T06:29:08.012Z,41.26
2022-09-25T06:34:29.807Z,36.28
2022-09-25T06:39:51.561Z,31.38
2022-09-25T06:45:13.403Z,27.98
2022-09-25T06:50:51.591Z,25.25
2022-09-25T06:56:13.731Z,26.68
2022-09-25T07:01:35.842Z,25.49
2022-09-25T07:06:57.789Z,26.37
2022-09-25T07:12:19.608Z,24.51
2022-09-25T07:17:42.721Z,24.76
2022-09-25T07:23:04.512Z,23.37
2022-09-25T07:28:26.290Z,23.48
2022-09-25T07:33:48.460Z,23.26
2022-09-25T07:39:14.767Z,24.07
2022-09-25T07:44:41.519Z,24.87
2022-09-25T07:50:05.778Z,25.40
2022-09-25T07:55:27.573Z,27.45
2022-09-25T08:00:49.347Z,26.12
2022-09-25T08:06:13.037Z,24.74
2022-09-25T08:11:35.144Z,24.96
2022-09-25T08:16:56.916Z,23.83
2022-09-25T08:22:18.683Z,24.68
2022-09-25T08:27:40.442Z,25.23
2022-09-25T08:33:02.201Z,24.75
2022-09-25T08:38:24.467Z,26.86
2022-09-25T08:44:06.503Z,27.96
2022-09-25T08:49:33.883Z,28.21
2022-09-25T08:54:55.698Z,29.90
2022-09-25T09:00:20.722Z,28.93
2022-09-25T09:05:48.212Z,32.38
2022-09-25T09:11:19.795Z,31.41
2022-09-25T09:16:45.579Z,31.73
2022-09-25T09:22:11.012Z,30.05
2022-09-25T09:27:47.833Z,29.18
2022-09-25T09:33:50.249Z,31.75
2022-09-25T09:39:18.304Z,29.53
2022-09-25T09:44:50.426Z,28.59
2022-09-25T09:50:18.425Z,29.93
2022-09-25T09:55:53.539Z,30.94
2022-09-25T10:01:40.254Z,34.27
2022-09-25T10:07:18.193Z,38.12
2022-09-25T10:12:46.184Z,38.00
2022-09-25T10:18:08.565Z,40.11
2022-09-25T10:23:37.232Z,41.79
2022-09-25T10:29:04.155Z,43.25
2022-09-25T10:34:26.288Z,41.99
2022-09-25T10:40:21.201Z,42.33
2022-09-25T10:45:43.236Z,41.84
2022-09-25T10:51:07.520Z,41.44
2022-09-25T10:56:32.567Z,41.00
2022-09-25T11:01:55.542Z,40.65
2022-09-25T11:07:20.787Z,39.88
2022-09-25T11:12:43.876Z,40.98
2022-09-25T11:18:06.164Z,41.42
2022-09-25T11:24:14.357Z,42.92
2022-09-25T11:29:58.181Z,42.35
2022-09-25T11:35:45.453Z,42.13
2022-09-25T11:41:16.641Z,41.84
2022-09-25T11:47:03.048Z,42.78
2022-09-25T11:52:27.811Z,42.86
2022-09-25T11:58:41.226Z,40.94
2022-09-25T12:04:41.341Z,41.72
2022-09-25T12:10:29.281Z,41.84
2022-09-25T12:16:23.765Z,41.74
2022-09-25T12:21:57.677Z,41.41
2022-09-25T12:27:47.377Z,41.49
2022-09-25T12:33:24.831Z,41.53
2022-09-25T12:39:12.829Z,41.84
2022-09-25T12:44:43.429Z,41.97
2022-09-25T12:50:18.993Z,40.27
2022-09-25T12:55:46.731Z,42.94
2022-09-25T13:01:27.439Z,42.17
2022-09-25T13:07:04.302Z,43.22
2022-09-25T13:12:38.454Z,43.05
2022-09-25T13:18:00.452Z,43.00
2022-09-25T13:23:33.807Z,41.96
2022-09-25T13:29:04.205Z,42.65
2022-09-25T13:34:25.986Z,42.75
2022-09-25T13:39:50.314Z,42.04
2022-09-25T13:45:32.178Z,42.49
2022-09-25T13:51:19.895Z,42.78
2022-09-25T13:56:41.645Z,43.48
2022-09-25T14:02:51.289Z,43.23
2022-09-25T14:08:15.884Z,42.92
2022-09-25T14:13:37.946Z,43.79
2022-09-25T14:19:01.912Z,43.69
2022-09-25T14:24:29.181Z,43.16
2022-09-25T14:29:51.138Z,43.54
2022-09-25T14:35:34.329Z,43.30
2022-09-25T14:41:11.182Z,44.17
2022-09-25T14:46:33.268Z,44.57
2022-09-25T14:51:59.116Z,45.50
2022-09-25T14:57:27.174Z,46.93
2022-09-25T15:02:49.459Z,47.91
2022-09-25T15:08:38.182Z,51.10
2022-09-25T15:14:18.699Z,54.22
2022-09-25T15:19:44.284Z,54.32
2022-09-25T15:25:08.271Z,55.62
2022-09-25T15:30:30.814Z,56.04
2022-09-25T15:35:57.734Z,57.59
2022-09-25T15:41:21.112Z,57.87
2022-09-25T15:46:46.668Z,58.57
2022-09-25T15:52:24.874Z,60.73
2022-09-25T15:57:48.032Z,60.30
2022-09-25T16:03:12.838Z,60.66
2022-09-25T16:08:35.703Z,62.35
2022-09-25T16:14:26.910Z,63.64
2022-09-25T16:20:00.300Z,62.88
2022-09-25T16:25:29.521Z,64.10
2022-09-25T16:31:07.084Z,65.08
2022-09-25T16:36:39.331Z,65.15
2022-09-25T16:42:26.003Z,66.77
2022-09-25T16:47:49.616Z,65.93
2022-09-25T16:53:11.563Z,66.48
2022-09-25T16:58:33.516Z,67.08
2022-09-25T17:03:56.071Z,67.65
2022-09-25T17:09:18.494Z,68.96
2022-09-25T17:14:47.871Z,69.24
2022-09-25T17:20:11.234Z,69.51
2022-09-25T17:25:45.279Z,69.91
2022-09-25T17:31:09.239Z,70.77
2022-09-25T17:36:31.111Z,72.45
2022-09-25T17:41:52.998Z,72.29
2022-09-25T17:47:14.852Z,72.78
2022-09-25T17:52:36.975Z,72.79
2022-09-25T17:57:58.832Z,72.38
2022-09-25T18:03:21.422Z,71.21
2022-09-25T18:08:43.213Z,72.00
2022-09-25T18:14:05.144Z,72.60
2022-09-25T18:19:26.951Z,72.73
2022-09-25T18:24:49.884Z,73.34
2022-09-25T18:30:15.304Z,73.28
2022-09-25T18:35:37.089Z,73.72
2022-09-25T18:41:02.793Z,73.40
2022-09-25T18:46:24.742Z,73.68
2022-09-25T18:51:46.562Z,74.47
2022-09-25T18:57:09.530Z,74.37
2022-09-25T19:02:31.730Z,74.19
2022-09-25T19:07:53.645Z,74.50
2022-09-25T19:13:15.449Z,74.45
2022-09-25T19:18:37.518Z,74.66
2022-09-25T19:23:59.323Z,74.77
2022-09-25T19:29:21.228Z,74.56
2022-09-25T19:34:43.211Z,74.67
2022-09-25T19:40:05.486Z,75.72
2022-09-25T19:45:27.316Z,75.77
2022-09-25T19:50:49.536Z,77.28
2022-09-25T19:56:11.984Z,77.45
2022-09-25T20:01:33.971Z,78.54
2022-09-25T20:06:55.880Z,79.52
2022-09-25T20:12:17.644Z,80.34
2022-09-25T20:17:39.427Z,81.33
2022-09-25T20:23:01.219Z,82.50
2022-09-25T20:28:23.002Z,84.60
2022-09-25T20:33:44.858Z,85.89
2022-09-25T20:39:07.378Z,87.66
2022-09-25T20:44:29.206Z,88.53
2022-09-25T20:49:51.067Z,89.87
2022-09-25T20:55:12.861Z,90.37
2022-09-25T21:00:34.625Z,91.09
2022-09-25T21:06:03.365Z,92.09
2022-09-25T21:11:25.614Z,93.14
2022-09-25T21:16:48.441Z,93.93
2022-09-25T21:22:10.306Z,94.37
2022-09-25T21:27:32.269Z,95.83
2022-09-25T21:32:54.098Z,97.67
2022-09-25T21:38:15.924Z,97.99
2022-09-25T21:43:38.499Z,98.44
2022-09-25T21:49:02.753Z,98.84
2022-09-25T21:54:24.507Z,98.93
2022-09-25T21:59:46.320Z,100.00
2022-09-25T22:05:08.562Z,100.00
2022-09-25T22:10:30.316Z,100.00
2022-09-25T22:16:03.352Z,100.00
2022-09-25T22:21:28.328Z,100.00
2022-09-25T22:26:51.916Z,100.00
2022-09-25T22:32:13.673Z,100.00
2022-09-25T22:37:35.434Z,100.00
2022-09-25T22:43:01.151Z,100.00
2022-09-25T22:48:22.946Z,100.00
2022-09-25T22:53:44.912Z,100.00
2022-09-25T22:59:10.358Z,100.00
2022-09-25T23:04:32.151Z,100.00
2022-09-25T23:09:54.141Z,100.00
2022-09-25T23:15:16.051Z,100.00
2022-09-25T23:20:37.850Z,100.00
2022-09-25T23:26:05.140Z,100.00
2022-09-25T23:31:27.398Z,100.00
2022-09-25T23:36:49.246Z,100.00
2022-09-25T23:42:10.992Z,100.00
2022-09-25T23:47:32.757Z,100.00
2022-09-25T23:52:54.520Z,100.00
2022-09-25T23:58:17.147Z,100.00
